createdAt,value
2018-09-10T00:00:37.950Z,12.26
2018-09-10T00:01:38.265Z,12.26
2018-09-10T00:02:37.931Z,12.23
2018-09-10T00:03:37.923Z,12.15
2018-09-10T00:04:37.912Z,12.15
2018-09-10T00:05:37.898Z,12.23
2018-09-10T00:06:38.112Z,12.18
2018-09-10T00:07:37.880Z,12.19
2018-09-10T00:08:37.869Z,12.15
2018-09-10T00:09:37.861Z,12.22
2018-09-10T00:10:37.864Z,12.15
2018-09-10T00:11:37.923Z,12.11
2018-09-10T00:12:37.826Z,12.15
2018-09-10T00:13:37.818Z,12.16
2018-09-10T00:14:37.804Z,12.11
2018-09-10T00:15:37.792Z,12.05
2018-09-10T00:16:38.061Z,12.07
2018-09-10T00:17:37.768Z,11.97
2018-09-10T00:18:37.768Z,11.96
2018-09-10T00:19:37.748Z,11.98
2018-09-10T00:20:37.741Z,11.88
2018-09-10T00:21:38.817Z,11.96
2018-09-10T00:22:37.721Z,11.87
2018-09-10T00:23:37.706Z,11.90
2018-09-10T00:24:37.696Z,11.81
2018-09-10T00:25:37.684Z,11.90
2018-09-10T00:26:37.726Z,11.72
2018-09-10T00:27:37.664Z,11.81
2018-09-10T00:28:37.653Z,11.66
2018-09-10T00:29:37.637Z,11.70
2018-09-10T00:30:37.627Z,11.75
2018-09-10T00:31:37.861Z,11.66
2018-09-10T00:32:37.609Z,11.66
2018-09-10T00:33:37.596Z,11.56
2018-09-10T00:34:37.591Z,11.74
2018-09-10T00:35:37.581Z,11.67
2018-09-10T00:36:37.562Z,11.64
2018-09-10T00:37:37.605Z,11.64
2018-09-10T00:38:37.549Z,11.70
2018-09-10T00:39:37.535Z,11.67
2018-09-10T00:40:37.524Z,11.69
2018-09-10T00:41:37.522Z,11.69
2018-09-10T00:42:37.741Z,11.67
2018-09-10T00:43:37.493Z,11.63
2018-09-10T00:44:37.482Z,11.56
2018-09-10T00:45:37.470Z,11.56
2018-09-10T00:46:37.458Z,11.60
2018-09-10T00:47:37.566Z,11.62
2018-09-10T00:48:37.443Z,11.59
2018-09-10T00:49:37.431Z,11.54
2018-09-10T00:50:37.414Z,11.53
2018-09-10T00:51:37.406Z,11.54
2018-09-10T00:52:37.703Z,11.49
2018-09-10T00:53:37.383Z,11.46
2018-09-10T00:54:37.374Z,11.51
2018-09-10T00:55:37.366Z,11.46
2018-09-10T00:56:37.350Z,11.49
2018-09-10T00:57:37.534Z,11.49
2018-09-10T00:58:37.328Z,11.42
2018-09-10T00:59:37.315Z,11.41
2018-09-10T01:00:37.311Z,11.38
2018-09-10T01:01:37.296Z,11.41
2018-09-10T01:02:37.367Z,11.31
2018-09-10T01:03:37.289Z,11.39
2018-09-10T01:04:37.262Z,11.44
2018-09-10T01:05:37.255Z,11.41
2018-09-10T01:06:37.251Z,11.35
2018-09-10T01:07:37.504Z,11.35
2018-09-10T01:08:37.224Z,11.33
2018-09-10T01:09:37.212Z,11.27
2018-09-10T01:10:37.202Z,11.28
2018-09-10T01:11:37.199Z,11.35
2018-09-10T01:12:37.181Z,11.31
2018-09-10T01:13:37.240Z,11.35
2018-09-10T01:14:37.157Z,11.38
2018-09-10T01:15:37.148Z,11.38
2018-09-10T01:16:37.133Z,11.33
2018-09-10T01:17:37.123Z,11.28
2018-09-10T01:18:37.379Z,11.26
2018-09-10T01:19:37.102Z,11.20
2018-09-10T01:20:37.089Z,11.11
2018-09-10T01:21:37.079Z,11.16
2018-09-10T01:22:37.114Z,11.08
2018-09-10T01:23:37.208Z,11.11
2018-09-10T01:24:37.072Z,11.12
2018-09-10T01:25:37.036Z,11.13
2018-09-10T01:26:37.032Z,11.06
2018-09-10T01:27:37.017Z,11.08
2018-09-10T01:28:37.369Z,10.98
2018-09-10T01:29:36.994Z,10.95
2018-09-10T01:30:36.981Z,10.88
2018-09-10T01:31:36.973Z,11.03
2018-09-10T01:32:36.967Z,10.95
2018-09-10T01:33:37.180Z,11.03
2018-09-10T01:34:36.945Z,10.94
2018-09-10T01:35:36.929Z,10.99
2018-09-10T01:36:36.928Z,10.93
2018-09-10T01:37:36.909Z,10.93
2018-09-10T01:38:37.011Z,10.99
2018-09-10T01:39:36.896Z,10.99
2018-09-10T01:40:36.879Z,11.02
2018-09-10T01:41:36.877Z,10.76
2018-09-10T01:42:36.863Z,10.88
2018-09-10T01:43:36.840Z,10.76
2018-09-10T01:44:37.051Z,10.70
2018-09-10T01:45:36.821Z,10.81
2018-09-10T01:46:36.820Z,10.75
2018-09-10T01:47:36.802Z,10.76
2018-09-10T01:48:36.790Z,10.69
2018-09-10T01:49:36.890Z,10.73
2018-09-10T01:50:36.763Z,10.76
2018-09-10T01:51:36.782Z,10.75
2018-09-10T01:52:36.754Z,10.69
2018-09-10T01:53:36.735Z,10.78
2018-09-10T01:54:37.948Z,10.78
2018-09-10T01:55:36.713Z,10.80
2018-09-10T01:56:36.703Z,10.72
2018-09-10T01:57:36.701Z,10.66
2018-09-10T01:58:36.690Z,10.72
2018-09-10T01:59:36.867Z,10.70
2018-09-10T02:00:36.671Z,10.66
2018-09-10T02:01:36.656Z,10.66
2018-09-10T02:02:36.643Z,10.63
2018-09-10T02:03:36.629Z,10.62
2018-09-10T02:04:36.691Z,10.55
2018-09-10T02:05:36.607Z,10.63
2018-09-10T02:06:36.598Z,10.69
2018-09-10T02:07:36.580Z,10.66
2018-09-10T02:08:36.579Z,10.60
2018-09-10T02:09:36.835Z,10.66
2018-09-10T02:10:36.550Z,10.65
2018-09-10T02:11:36.545Z,10.70
2018-09-10T02:12:36.530Z,10.58
2018-09-10T02:13:36.523Z,10.55
2018-09-10T02:14:36.668Z,10.43
2018-09-10T02:15:36.499Z,10.54
2018-09-10T02:16:36.486Z,10.49
2018-09-10T02:17:36.480Z,10.55
2018-09-10T02:18:36.463Z,10.42
2018-09-10T02:19:36.801Z,10.44
2018-09-10T02:20:36.445Z,10.42
2018-09-10T02:21:36.439Z,10.44
2018-09-10T02:22:36.425Z,10.54
2018-09-10T02:23:36.424Z,10.58
2018-09-10T02:24:36.637Z,10.57
2018-09-10T02:25:36.393Z,10.47
2018-09-10T02:26:36.385Z,10.43
2018-09-10T02:27:36.390Z,10.42
2018-09-10T02:28:36.364Z,10.28
2018-09-10T02:29:36.360Z,10.20
2018-09-10T02:30:36.669Z,10.22
2018-09-10T02:31:36.330Z,10.22
2018-09-10T02:32:36.317Z,10.26
2018-09-10T02:33:36.312Z,10.28
2018-09-10T02:34:36.294Z,10.34
2018-09-10T02:35:37.428Z,10.26
2018-09-10T02:36:36.275Z,10.13
2018-09-10T02:37:36.270Z,10.18
2018-09-10T02:38:36.369Z,10.14
2018-09-10T02:39:36.241Z,10.17
2018-09-10T02:40:36.329Z,10.11
2018-09-10T02:41:36.229Z,10.16
2018-09-10T02:42:36.217Z,10.16
2018-09-10T02:43:36.203Z,10.18
2018-09-10T02:44:36.189Z,10.18
2018-09-10T02:45:36.471Z,10.14
2018-09-10T02:46:36.171Z,10.11
2018-09-10T02:47:36.160Z,10.16
2018-09-10T02:48:36.145Z,10.18
2018-09-10T02:49:36.140Z,10.09
2018-09-10T02:50:36.297Z,10.02
2018-09-10T02:51:36.114Z,9.99
2018-09-10T02:52:36.101Z,10.10
2018-09-10T02:53:36.099Z,10.06
2018-09-10T02:54:36.085Z,10.17
2018-09-10T02:55:36.070Z,10.07
2018-09-10T02:56:36.348Z,10.18
2018-09-10T02:57:36.047Z,10.10
2018-09-10T02:58:36.043Z,10.17
2018-09-10T02:59:36.035Z,10.17
2018-09-10T03:00:36.038Z,10.13
2018-09-10T03:01:36.173Z,10.09
2018-09-10T03:02:35.998Z,10.07
2018-09-10T03:03:35.985Z,10.06
2018-09-10T03:04:35.977Z,10.11
2018-09-10T03:05:35.970Z,10.13
2018-09-10T03:06:36.009Z,9.95
2018-09-10T03:07:35.943Z,9.98
2018-09-10T03:08:35.932Z,9.93
2018-09-10T03:09:35.924Z,10.01
2018-09-10T03:10:35.915Z,9.96
2018-09-10T03:11:36.140Z,9.98
2018-09-10T03:12:35.893Z,9.96
2018-09-10T03:13:35.894Z,10.01
2018-09-10T03:14:35.868Z,10.02
2018-09-10T03:15:35.865Z,9.86
2018-09-10T03:16:35.981Z,9.89
2018-09-10T03:17:35.844Z,9.98
2018-09-10T03:18:35.825Z,9.93
2018-09-10T03:19:35.813Z,9.91
2018-09-10T03:20:35.800Z,9.96
2018-09-10T03:21:36.114Z,9.92
2018-09-10T03:22:35.789Z,9.95
2018-09-10T03:23:35.777Z,9.93
2018-09-10T03:24:35.754Z,9.88
2018-09-10T03:25:35.750Z,9.86
2018-09-10T03:26:35.742Z,9.88
2018-09-10T03:27:35.852Z,9.92
2018-09-10T03:28:35.718Z,9.80
2018-09-10T03:29:35.712Z,9.83
2018-09-10T03:30:35.693Z,9.88
2018-09-10T03:31:35.683Z,9.77
2018-09-10T03:32:35.989Z,9.88
2018-09-10T03:33:35.778Z,9.86
2018-09-10T03:34:35.657Z,9.86
2018-09-10T03:35:35.637Z,9.89
2018-09-10T03:36:35.622Z,9.81
2018-09-10T03:37:36.741Z,9.71
2018-09-10T03:38:35.611Z,9.85
2018-09-10T03:39:35.602Z,9.80
2018-09-10T03:40:35.600Z,9.80
2018-09-10T03:41:35.573Z,9.77
2018-09-10T03:42:35.653Z,9.71
2018-09-10T03:43:35.549Z,9.71
2018-09-10T03:44:35.545Z,9.78
2018-09-10T03:45:35.535Z,9.71
2018-09-10T03:46:35.528Z,9.75
2018-09-10T03:47:35.785Z,9.65
2018-09-10T03:48:35.498Z,9.70
2018-09-10T03:49:35.487Z,9.58
2018-09-10T03:50:35.475Z,9.52
2018-09-10T03:51:35.469Z,9.59
2018-09-10T03:52:35.630Z,9.58
2018-09-10T03:53:35.443Z,9.55
2018-09-10T03:54:35.429Z,9.59
2018-09-10T03:55:35.426Z,9.56
2018-09-10T03:56:35.412Z,9.45
2018-09-10T03:57:35.452Z,9.59
2018-09-10T03:58:35.396Z,9.55
2018-09-10T03:59:35.384Z,9.48
2018-09-10T04:00:35.368Z,9.56
2018-09-10T04:01:35.361Z,9.49
2018-09-10T04:02:35.594Z,9.49
2018-09-10T04:03:35.339Z,9.49
2018-09-10T04:04:35.328Z,9.48
2018-09-10T04:05:35.320Z,9.49
2018-09-10T04:06:35.306Z,9.56
2018-09-10T04:07:35.425Z,9.62
2018-09-10T04:08:35.290Z,9.55
2018-09-10T04:09:35.277Z,9.49
2018-09-10T04:10:35.271Z,9.52
2018-09-10T04:11:35.251Z,9.56
2018-09-10T04:12:35.562Z,9.45
2018-09-10T04:13:35.229Z,9.45
2018-09-10T04:14:35.222Z,9.49
2018-09-10T04:15:35.211Z,9.44
2018-09-10T04:16:35.199Z,9.44
2018-09-10T04:17:35.183Z,9.52
2018-09-10T04:18:35.291Z,9.41
2018-09-10T04:19:35.162Z,9.49
2018-09-10T04:20:35.149Z,9.55
2018-09-10T04:21:35.141Z,9.44
2018-09-10T04:22:35.140Z,9.52
2018-09-10T04:23:35.429Z,9.52
2018-09-10T04:24:35.111Z,9.50
2018-09-10T04:25:35.100Z,9.42
2018-09-10T04:26:35.083Z,9.49
2018-09-10T04:27:35.082Z,9.49
2018-09-10T04:28:35.270Z,9.40
2018-09-10T04:29:35.051Z,9.42
2018-09-10T04:30:35.042Z,9.40
2018-09-10T04:31:35.051Z,9.52
2018-09-10T04:32:35.026Z,9.50
2018-09-10T04:33:35.098Z,9.48
2018-09-10T04:34:35.073Z,9.50
2018-09-10T04:35:34.982Z,9.40
2018-09-10T04:36:34.979Z,9.48
2018-09-10T04:37:34.969Z,9.44
2018-09-10T04:38:35.231Z,9.44
2018-09-10T04:39:34.945Z,9.53
2018-09-10T04:40:34.930Z,9.38
2018-09-10T04:41:34.921Z,9.41
2018-09-10T04:42:34.902Z,9.45
2018-09-10T04:43:35.077Z,9.50
2018-09-10T04:44:34.890Z,9.49
2018-09-10T04:45:34.879Z,9.49
2018-09-10T04:46:34.860Z,9.45
2018-09-10T04:47:34.853Z,9.42
2018-09-10T04:48:34.837Z,9.42
2018-09-10T04:49:35.122Z,9.52
2018-09-10T04:50:34.823Z,9.44
2018-09-10T04:51:34.808Z,9.34
2018-09-10T04:52:34.795Z,9.50
2018-09-10T04:53:34.787Z,9.52
2018-09-10T04:54:34.942Z,9.44
2018-09-10T04:55:34.763Z,9.44
2018-09-10T04:56:34.751Z,9.44
2018-09-10T04:57:34.744Z,9.44
2018-09-10T04:58:34.730Z,9.37
2018-09-10T04:59:36.003Z,9.45
2018-09-10T05:00:34.707Z,9.49
2018-09-10T05:01:34.697Z,9.48
2018-09-10T05:02:34.693Z,9.49
2018-09-10T05:03:34.687Z,9.37
2018-09-10T05:04:34.987Z,9.37
2018-09-10T05:05:34.660Z,9.37
2018-09-10T05:06:34.644Z,9.48
2018-09-10T05:07:34.633Z,9.50
2018-09-10T05:08:34.625Z,9.41
2018-09-10T05:09:34.745Z,9.44
2018-09-10T05:10:34.606Z,9.40
2018-09-10T05:11:34.588Z,9.42
2018-09-10T05:12:34.576Z,9.40
2018-09-10T05:13:34.569Z,9.53
2018-09-10T05:14:34.883Z,9.52
2018-09-10T05:15:34.552Z,9.45
2018-09-10T05:16:34.542Z,9.59
2018-09-10T05:17:34.534Z,9.59
2018-09-10T05:18:34.513Z,9.55
2018-09-10T05:19:34.713Z,9.75
2018-09-10T05:20:34.495Z,9.74
2018-09-10T05:21:34.484Z,9.77
2018-09-10T05:22:34.468Z,9.91
2018-09-10T05:23:34.458Z,9.91
2018-09-10T05:24:34.542Z,9.81
2018-09-10T05:25:34.435Z,9.52
2018-09-10T05:26:34.421Z,9.60
2018-09-10T05:27:34.414Z,9.81
2018-09-10T05:28:34.400Z,9.92
2018-09-10T05:29:34.680Z,9.93
2018-09-10T05:30:34.376Z,9.95
2018-09-10T05:31:34.368Z,9.96
2018-09-10T05:32:34.357Z,10.09
2018-09-10T05:33:34.345Z,10.01
2018-09-10T05:34:34.510Z,10.14
2018-09-10T05:35:34.333Z,10.24
2018-09-10T05:36:34.311Z,10.28
2018-09-10T05:37:34.309Z,10.47
2018-09-10T05:38:34.292Z,10.57
2018-09-10T05:39:34.276Z,10.52
2018-09-10T05:40:34.559Z,10.51
2018-09-10T05:41:34.310Z,10.60
2018-09-10T05:42:34.245Z,10.69
2018-09-10T05:43:34.237Z,10.76
2018-09-10T05:44:34.227Z,10.78
2018-09-10T05:45:34.383Z,10.84
2018-09-10T05:46:34.206Z,10.99
2018-09-10T05:47:34.230Z,11.05
2018-09-10T05:48:34.195Z,11.08
2018-09-10T05:49:34.182Z,11.12
2018-09-10T05:50:34.214Z,11.23
2018-09-10T05:51:34.149Z,11.26
2018-09-10T05:52:34.137Z,11.17
2018-09-10T05:53:34.131Z,11.35
2018-09-10T05:54:34.118Z,11.35
2018-09-10T05:55:34.466Z,11.35
2018-09-10T05:56:34.100Z,11.12
2018-09-10T05:57:34.089Z,10.95
2018-09-10T05:58:34.077Z,10.98
2018-09-10T05:59:34.063Z,10.94
2018-09-10T06:00:34.252Z,10.87
2018-09-10T06:01:34.054Z,11.08
2018-09-10T06:02:34.040Z,11.23
2018-09-10T06:03:34.023Z,11.38
2018-09-10T06:04:34.015Z,11.53
2018-09-10T06:05:34.331Z,11.66
2018-09-10T06:06:33.996Z,11.77
2018-09-10T06:07:33.989Z,11.70
2018-09-10T06:08:34.007Z,11.72
2018-09-10T06:09:33.959Z,11.90
2018-09-10T06:10:34.184Z,12.04
2018-09-10T06:11:33.940Z,12.12
2018-09-10T06:12:34.477Z,12.21
2018-09-10T06:13:33.920Z,12.21
2018-09-10T06:14:33.903Z,12.30
2018-09-10T06:15:33.897Z,12.30
2018-09-10T06:16:34.199Z,12.34
2018-09-10T06:17:33.884Z,12.22
2018-09-10T06:18:33.866Z,12.16
2018-09-10T06:19:33.856Z,12.30
2018-09-10T06:20:33.842Z,12.08
2018-09-10T06:21:34.028Z,11.88
2018-09-10T06:22:33.829Z,11.96
2018-09-10T06:23:33.806Z,11.96
2018-09-10T06:24:33.804Z,11.98
2018-09-10T06:25:33.790Z,12.07
2018-09-10T06:26:33.862Z,12.23
2018-09-10T06:27:33.772Z,12.34
2018-09-10T06:28:33.752Z,12.36
2018-09-10T06:29:33.749Z,12.55
2018-09-10T06:30:33.736Z,12.77
2018-09-10T06:31:34.001Z,13.04
2018-09-10T06:32:33.715Z,12.94
2018-09-10T06:33:33.696Z,13.09
2018-09-10T06:34:33.684Z,12.94
2018-09-10T06:35:33.705Z,12.98
2018-09-10T06:36:33.843Z,12.76
2018-09-10T06:37:33.654Z,12.79
2018-09-10T06:38:33.648Z,12.87
2018-09-10T06:39:33.644Z,12.98
2018-09-10T06:40:33.629Z,13.14
2018-09-10T06:41:33.666Z,13.16
2018-09-10T06:42:33.610Z,13.25
2018-09-10T06:43:33.596Z,13.21
2018-09-10T06:44:33.585Z,13.29
2018-09-10T06:45:33.574Z,13.43
2018-09-10T06:46:33.836Z,13.41
2018-09-10T06:47:33.547Z,13.50
2018-09-10T06:48:33.551Z,13.47
2018-09-10T06:49:33.525Z,13.66
2018-09-10T06:50:33.521Z,13.65
2018-09-10T06:51:33.507Z,13.55
2018-09-10T06:52:33.846Z,13.53
2018-09-10T06:53:33.490Z,13.61
2018-09-10T06:54:33.488Z,13.79
2018-09-10T06:55:33.465Z,13.79
2018-09-10T06:56:33.456Z,13.87
2018-09-10T06:57:33.982Z,14.04
2018-09-10T06:58:33.436Z,14.01
2018-09-10T06:59:33.421Z,14.05
2018-09-10T07:00:33.413Z,14.30
2018-09-10T07:01:33.403Z,14.42
2018-09-10T07:02:33.506Z,14.42
2018-09-10T07:03:33.379Z,14.49
2018-09-10T07:04:33.365Z,14.45
2018-09-10T07:05:33.367Z,14.44
2018-09-10T07:06:33.465Z,14.53
2018-09-10T07:07:33.644Z,14.67
2018-09-10T07:08:33.328Z,14.82
2018-09-10T07:09:33.312Z,14.85
2018-09-10T07:10:33.302Z,14.87
2018-09-10T07:11:33.295Z,15.20
2018-09-10T07:12:33.564Z,15.34
2018-09-10T07:13:33.268Z,15.38
2018-09-10T07:14:33.259Z,15.43
2018-09-10T07:15:33.251Z,15.35
2018-09-10T07:16:33.243Z,15.33
2018-09-10T07:17:33.311Z,15.46
2018-09-10T07:18:33.279Z,15.51
2018-09-10T07:19:33.207Z,15.67
2018-09-10T07:20:33.196Z,15.73
2018-09-10T07:21:33.191Z,15.71
2018-09-10T07:22:33.177Z,15.92
2018-09-10T07:23:33.356Z,16.07
2018-09-10T07:24:33.156Z,16.16
2018-09-10T07:25:33.135Z,16.30
2018-09-10T07:26:33.135Z,16.18
2018-09-10T07:27:33.116Z,16.32
2018-09-10T07:28:33.196Z,16.52
2018-09-10T07:29:33.096Z,16.52
2018-09-10T07:30:33.089Z,16.55
2018-09-10T07:31:33.083Z,16.81
2018-09-10T07:32:33.071Z,16.82
2018-09-10T07:33:33.326Z,17.06
2018-09-10T07:34:33.123Z,17.20
2018-09-10T07:35:33.033Z,17.05
2018-09-10T07:36:33.026Z,17.20
2018-09-10T07:37:33.009Z,17.14
2018-09-10T07:38:33.156Z,17.10
2018-09-10T07:39:32.994Z,17.22
2018-09-10T07:40:32.986Z,17.36
2018-09-10T07:41:32.972Z,17.46
2018-09-10T07:42:32.963Z,17.55
2018-09-10T07:43:33.359Z,17.60
2018-09-10T07:44:32.935Z,17.60
2018-09-10T07:45:32.936Z,17.76
2018-09-10T07:46:32.916Z,17.68
2018-09-10T07:47:32.909Z,17.81
2018-09-10T07:48:40.824Z,17.99
2018-09-10T07:49:32.887Z,18.23
2018-09-10T07:50:32.869Z,18.28
2018-09-10T07:51:32.866Z,18.41
2018-09-10T07:52:32.850Z,18.53
2018-09-10T07:53:32.957Z,18.60
2018-09-10T07:54:32.905Z,18.76
2018-09-10T07:55:32.821Z,19.01
2018-09-10T07:56:32.812Z,19.10
2018-09-10T07:57:32.804Z,19.15
2018-09-10T07:58:32.791Z,19.13
2018-09-10T07:59:33.003Z,19.13
2018-09-10T08:00:32.764Z,18.97
2018-09-10T08:01:32.752Z,18.89
2018-09-10T08:02:32.737Z,19.01
2018-09-10T08:03:32.729Z,18.94
2018-09-10T08:04:32.821Z,18.76
2018-09-10T08:05:32.722Z,19.05
2018-09-10T08:06:32.701Z,18.99
2018-09-10T08:07:32.686Z,18.86
2018-09-10T08:08:32.675Z,19.06
2018-09-10T08:09:33.064Z,18.99
2018-09-10T08:10:32.651Z,19.20
2018-09-10T08:11:32.653Z,19.39
2018-09-10T08:12:32.635Z,19.25
2018-09-10T08:13:32.625Z,19.32
2018-09-10T08:14:32.801Z,19.24
2018-09-10T08:15:32.600Z,19.43
2018-09-10T08:16:32.607Z,19.57
2018-09-10T08:17:32.580Z,19.58
2018-09-10T08:18:32.574Z,19.90
2018-09-10T08:19:32.640Z,19.98
2018-09-10T08:20:32.544Z,20.04
2018-09-10T08:21:32.543Z,19.89
2018-09-10T08:22:32.529Z,19.90
2018-09-10T08:23:32.825Z,19.70
2018-09-10T08:24:32.836Z,19.95
2018-09-10T08:25:32.491Z,20.05
2018-09-10T08:26:32.479Z,20.10
2018-09-10T08:27:32.473Z,20.04
2018-09-10T08:28:32.473Z,20.13
2018-09-10T08:29:32.460Z,20.35
2018-09-10T08:30:32.609Z,20.71
2018-09-10T08:31:32.428Z,20.82
2018-09-10T08:32:32.423Z,20.91
2018-09-10T08:33:32.409Z,20.87
2018-09-10T08:34:32.402Z,20.82
2018-09-10T08:35:32.639Z,20.94
2018-09-10T08:36:32.379Z,21.12
2018-09-10T08:37:32.363Z,21.37
2018-09-10T08:38:32.351Z,21.34
2018-09-10T08:39:32.551Z,21.52
2018-09-10T08:40:32.473Z,21.53
2018-09-10T08:41:32.318Z,21.82
2018-09-10T08:42:32.312Z,21.98
2018-09-10T08:43:32.307Z,21.61
2018-09-10T08:44:32.299Z,21.64
2018-09-10T08:45:32.827Z,21.90
2018-09-10T08:46:32.282Z,22.06
2018-09-10T08:47:32.271Z,22.30
2018-09-10T08:48:32.243Z,22.35
2018-09-10T08:49:32.249Z,22.48
2018-09-10T08:50:34.287Z,22.61
2018-09-10T08:51:32.212Z,22.66
2018-09-10T08:52:32.212Z,22.78
2018-09-10T08:53:32.190Z,22.96
2018-09-10T08:54:32.479Z,22.93
2018-09-10T08:55:32.435Z,22.61
2018-09-10T08:56:32.162Z,22.66
2018-09-10T08:57:32.181Z,22.86
2018-09-10T08:58:32.144Z,23.12
2018-09-10T08:59:32.136Z,23.25
2018-09-10T09:00:33.461Z,23.26
2018-09-10T09:01:32.113Z,22.96
2018-09-10T09:02:32.101Z,23.21
2018-09-10T09:03:32.090Z,23.26
2018-09-10T09:04:32.081Z,23.52
2018-09-10T09:05:32.063Z,23.56
2018-09-10T09:06:32.146Z,23.81
2018-09-10T09:07:32.042Z,23.84
2018-09-10T09:08:32.031Z,23.81
2018-09-10T09:09:32.412Z,23.45
2018-09-10T09:10:32.285Z,23.49
2018-09-10T09:11:32.281Z,23.29
2018-09-10T09:12:31.994Z,23.04
2018-09-10T09:13:31.986Z,23.06
2018-09-10T09:14:32.143Z,23.29
2018-09-10T09:15:31.980Z,23.39
2018-09-10T09:16:32.111Z,23.72
2018-09-10T09:17:31.994Z,23.81
2018-09-10T09:18:31.928Z,23.82
2018-09-10T09:19:31.914Z,23.99
2018-09-10T09:20:31.912Z,24.08
2018-09-10T09:21:31.942Z,24.23
2018-09-10T09:22:31.895Z,24.37
2018-09-10T09:23:31.943Z,24.51
2018-09-10T09:24:31.869Z,24.45
2018-09-10T09:25:31.860Z,24.23
2018-09-10T09:26:32.083Z,24.29
2018-09-10T09:27:31.831Z,24.15
2018-09-10T09:28:31.845Z,24.30
2018-09-10T09:29:31.854Z,24.49
2018-09-10T09:30:33.352Z,24.30
2018-09-10T09:31:31.995Z,24.02
2018-09-10T09:32:31.787Z,24.18
2018-09-10T09:33:31.783Z,24.26
2018-09-10T09:34:31.772Z,24.70
2018-09-10T09:35:31.787Z,24.70
2018-09-10T09:36:32.052Z,24.71
2018-09-10T09:37:31.730Z,25.05
2018-09-10T09:38:31.722Z,25.11
2018-09-10T09:39:31.708Z,25.08
2018-09-10T09:40:31.707Z,24.51
2018-09-10T09:41:31.883Z,24.33
2018-09-10T09:42:31.674Z,24.34
2018-09-10T09:43:31.732Z,24.16
2018-09-10T09:44:31.657Z,23.96
2018-09-10T09:45:31.643Z,23.99
2018-09-10T09:46:31.711Z,24.27
2018-09-10T09:47:31.626Z,24.41
2018-09-10T09:48:31.612Z,24.53
2018-09-10T09:49:31.600Z,24.92
2018-09-10T09:50:31.587Z,24.52
2018-09-10T09:51:31.852Z,24.71
2018-09-10T09:52:31.591Z,24.66
2018-09-10T09:53:31.565Z,24.83
2018-09-10T09:54:31.556Z,25.09
2018-09-10T09:55:31.540Z,24.99
2018-09-10T09:56:31.745Z,25.12
2018-09-10T09:57:31.630Z,25.39
2018-09-10T09:58:31.509Z,25.59
2018-09-10T09:59:31.492Z,25.79
2018-09-10T10:00:31.485Z,25.71
2018-09-10T10:01:31.518Z,25.85
2018-09-10T10:02:31.482Z,25.89
2018-09-10T10:03:31.448Z,26.08
2018-09-10T10:04:31.506Z,25.96
2018-09-10T10:05:31.433Z,25.91
2018-09-10T10:06:31.467Z,26.09
2018-09-10T10:07:31.573Z,26.24
2018-09-10T10:08:31.392Z,26.01
2018-09-10T10:09:31.394Z,26.11
2018-09-10T10:10:31.384Z,26.09
2018-09-10T10:11:31.383Z,26.24
2018-09-10T10:12:31.760Z,26.31
2018-09-10T10:13:31.344Z,26.13
2018-09-10T10:14:31.333Z,26.17
2018-09-10T10:15:31.318Z,26.54
2018-09-10T10:16:31.354Z,26.72
2018-09-10T10:17:31.537Z,27.03
2018-09-10T10:18:31.293Z,27.23
2018-09-10T10:19:31.277Z,27.05
2018-09-10T10:20:31.269Z,27.06
2018-09-10T10:21:31.256Z,27.39
2018-09-10T10:22:31.361Z,27.18
2018-09-10T10:23:31.238Z,27.06
2018-09-10T10:24:31.227Z,27.38
2018-09-10T10:25:31.214Z,27.43
2018-09-10T10:26:31.211Z,27.33
2018-09-10T10:27:31.503Z,27.63
2018-09-10T10:28:31.650Z,27.83
2018-09-10T10:29:31.180Z,27.88
2018-09-10T10:30:31.157Z,27.96
2018-09-10T10:31:31.149Z,27.58
2018-09-10T10:32:31.327Z,27.53
2018-09-10T10:33:31.136Z,27.39
2018-09-10T10:34:31.120Z,27.48
2018-09-10T10:35:31.112Z,27.72
2018-09-10T10:36:31.101Z,27.86
2018-09-10T10:37:31.160Z,28.20
2018-09-10T10:38:31.080Z,28.23
2018-09-10T10:39:31.071Z,28.02
2018-09-10T10:40:31.063Z,28.02
2018-09-10T10:41:31.050Z,28.05
2018-09-10T10:42:31.298Z,27.72
2018-09-10T10:43:31.031Z,27.80
2018-09-10T10:44:31.019Z,27.59
2018-09-10T10:45:31.009Z,27.63
2018-09-10T10:46:30.996Z,27.77
2018-09-10T10:47:31.152Z,27.55
2018-09-10T10:48:30.973Z,28.02
2018-09-10T10:49:30.962Z,28.23
2018-09-10T10:50:30.952Z,28.13
2018-09-10T10:51:30.943Z,28.14
2018-09-10T10:52:31.279Z,28.35
2018-09-10T10:53:30.915Z,28.65
2018-09-10T10:54:30.904Z,28.89
2018-09-10T10:55:30.898Z,28.45
2018-09-10T10:56:30.891Z,28.36
2018-09-10T10:57:31.118Z,27.91
2018-09-10T10:58:30.877Z,28.54
2018-09-10T10:59:30.868Z,28.64
2018-09-10T11:00:30.843Z,28.94
2018-09-10T11:01:30.834Z,29.29
2018-09-10T11:02:30.933Z,29.37
2018-09-10T11:03:30.820Z,29.55
2018-09-10T11:04:30.811Z,29.25
2018-09-10T11:05:30.794Z,29.18
2018-09-10T11:06:30.786Z,28.48
2018-09-10T11:07:31.066Z,28.32
2018-09-10T11:08:30.764Z,28.27
2018-09-10T11:09:30.755Z,28.48
2018-09-10T11:10:30.791Z,28.03
2018-09-10T11:11:30.729Z,27.52
2018-09-10T11:12:30.902Z,28.02
2018-09-10T11:13:30.709Z,28.28
2018-09-10T11:14:30.700Z,28.30
2018-09-10T11:15:30.694Z,28.27
2018-09-10T11:16:30.718Z,28.48
2018-09-10T11:17:30.665Z,28.64
2018-09-10T11:18:30.942Z,28.74
2018-09-10T11:19:30.646Z,28.52
2018-09-10T11:20:30.636Z,28.65
2018-09-10T11:21:30.635Z,28.45
2018-09-10T11:22:30.625Z,28.14
2018-09-10T11:23:30.779Z,28.38
2018-09-10T11:24:30.593Z,28.36
2018-09-10T11:25:30.668Z,28.61
2018-09-10T11:26:30.577Z,28.62
2018-09-10T11:27:30.566Z,28.42
2018-09-10T11:28:30.607Z,28.54
2018-09-10T11:29:30.550Z,28.87
2018-09-10T11:30:30.557Z,28.64
2018-09-10T11:31:30.519Z,27.99
2018-09-10T11:32:30.556Z,28.23
2018-09-10T11:33:30.758Z,28.25
2018-09-10T11:34:30.536Z,28.55
2018-09-10T11:35:30.528Z,28.27
2018-09-10T11:36:30.475Z,28.18
2018-09-10T11:37:30.499Z,28.32
2018-09-10T11:38:30.581Z,28.32
2018-09-10T11:39:30.450Z,28.40
2018-09-10T11:40:30.458Z,27.96
2018-09-10T11:41:30.464Z,27.72
2018-09-10T11:42:30.412Z,27.55
2018-09-10T11:43:30.711Z,27.55
2018-09-10T11:44:30.394Z,27.61
2018-09-10T11:45:30.416Z,27.38
2018-09-10T11:46:30.405Z,27.55
2018-09-10T11:47:30.371Z,27.98
2018-09-10T11:48:30.355Z,28.03
2018-09-10T11:49:30.452Z,28.23
2018-09-10T11:50:30.374Z,28.45
2018-09-10T11:51:30.326Z,28.36
2018-09-10T11:52:30.313Z,28.23
2018-09-10T11:53:30.309Z,28.32
2018-09-10T11:54:30.592Z,28.51
2018-09-10T11:55:30.314Z,28.51
2018-09-10T11:56:30.276Z,28.51
2018-09-10T11:57:30.263Z,28.30
2018-09-10T11:58:30.258Z,28.25
2018-09-10T11:59:30.438Z,28.17
2018-09-10T12:00:30.226Z,28.05
2018-09-10T12:01:30.218Z,28.23
2018-09-10T12:02:30.214Z,28.36
2018-09-10T12:03:30.248Z,28.40
2018-09-10T12:04:30.258Z,28.79
2018-09-10T12:05:30.183Z,29.03
2018-09-10T12:06:30.192Z,29.14
2018-09-10T12:07:30.169Z,29.00
2018-09-10T12:08:30.203Z,29.14
2018-09-10T12:09:30.494Z,29.33
2018-09-10T12:10:30.126Z,29.41
2018-09-10T12:11:30.125Z,29.23
2018-09-10T12:12:30.164Z,28.62
2018-09-10T12:13:30.107Z,28.33
2018-09-10T12:14:30.221Z,28.24
2018-09-10T12:15:30.133Z,28.36
2018-09-10T12:16:30.066Z,28.27
2018-09-10T12:17:30.043Z,28.51
2018-09-10T12:18:30.043Z,28.43
2018-09-10T12:19:30.363Z,28.35
2018-09-10T12:20:30.029Z,28.36
2018-09-10T12:21:30.043Z,28.42
2018-09-10T12:22:30.001Z,28.39
2018-09-10T12:23:30.039Z,28.55
2018-09-10T12:24:30.186Z,28.45
2018-09-10T12:25:29.961Z,28.61
2018-09-10T12:26:29.987Z,28.58
2018-09-10T12:27:29.953Z,28.85
2018-09-10T12:28:29.933Z,29.08
2018-09-10T12:29:30.018Z,28.89
2018-09-10T12:30:29.925Z,28.82
2018-09-10T12:31:29.920Z,29.20
2018-09-10T12:32:29.944Z,29.35
2018-09-10T12:33:29.904Z,29.21
2018-09-10T12:34:31.073Z,29.15
2018-09-10T12:35:29.880Z,29.03
2018-09-10T12:36:29.899Z,28.77
2018-09-10T12:37:29.850Z,28.83
2018-09-10T12:38:29.848Z,29.07
2018-09-10T12:39:30.011Z,29.29
2018-09-10T12:40:29.838Z,29.23
2018-09-10T12:41:29.801Z,29.00
2018-09-10T12:42:29.800Z,29.21
2018-09-10T12:43:29.799Z,29.29
2018-09-10T12:44:29.760Z,29.41
2018-09-10T12:45:30.076Z,29.00
2018-09-10T12:46:29.832Z,28.95
2018-09-10T12:47:29.740Z,29.17
2018-09-10T12:48:29.720Z,29.17
2018-09-10T12:49:29.722Z,29.27
2018-09-10T12:50:29.949Z,29.18
2018-09-10T12:51:29.696Z,29.26
2018-09-10T12:52:29.698Z,29.02
2018-09-10T12:53:29.734Z,29.23
2018-09-10T12:54:29.699Z,28.95
2018-09-10T12:55:30.001Z,29.12
2018-09-10T12:56:29.674Z,29.27
2018-09-10T12:57:29.638Z,29.20